Time;durP1;ratioP1;P1;durP2;ratioP2;P2;SDS_P1;SDS_P2;PMS_P1;PMS_P2;Temp;Humidity;BMP_temperature;BMP_pressure;BME280_temperature;BME280_humidity;BME280_pressure;Samples;Min_cycle;Max_cycle;Signal;HPM_P1;HPM_P2
2023/12/04 00:01:26;;;;;;;21.60;13.55;;;;;;;;;;5011627;28;20128;-71
2023/12/04 00:03:53;;;;;;;22.95;14.45;;;;;;;;;;5013431;28;20042;-71
2023/12/04 00:06:19;;;;;;;21.45;13.88;;;;;;;;;;5012998;28;20057;-71
2023/12/04 00:08:45;;;;;;;21.02;14.30;;;;;;;;;;5013298;28;20414;-70
2023/12/04 00:11:11;;;;;;;20.52;13.05;;;;;;;;;;5012843;28;20034;-71
2023/12/04 00:13:37;;;;;;;21.52;13.85;;;;;;;;;;5012558;28;20394;-71
2023/12/04 00:16:04;;;;;;;22.05;14.02;;;;;;;;;;4997537;28;20493;-71
2023/12/04 00:18:30;;;;;;;22.98;14.18;;;;;;;;;;5014008;28;20046;-70
2023/12/04 00:20:56;;;;;;;21.40;13.68;;;;;;;;;;5022120;28;20041;-70
2023/12/04 00:23:22;;;;;;;21.42;14.18;;;;;;;;;;5014675;28;20057;-70
2023/12/04 00:25:48;;;;;;;23.23;14.13;;;;;;;;;;5031649;28;20200;-71
2023/12/04 00:28:14;;;;;;;22.80;14.52;;;;;;;;;;5031246;28;20052;-71
2023/12/04 00:30:40;;;;;;;20.92;13.50;;;;;;;;;;5027271;28;20093;-70
2023/12/04 00:33:06;;;;;;;22.95;13.73;;;;;;;;;;5031338;28;20037;-71
2023/12/04 00:35:32;;;;;;;21.45;13.52;;;;;;;;;;5016871;28;20477;-70
2023/12/04 00:37:58;;;;;;;19.42;13.50;;;;;;;;;;5012922;28;20430;-70
2023/12/04 00:40:24;;;;;;;22.52;13.30;;;;;;;;;;4996152;28;20062;-70
2023/12/04 00:42:51;;;;;;;21.73;14.00;;;;;;;;;;5011574;28;20486;-70
2023/12/04 00:45:17;;;;;;;20.60;13.50;;;;;;;;;;4998612;28;20103;-70
2023/12/04 00:47:43;;;;;;;19.42;12.52;;;;;;;;;;5029774;28;20038;-69
2023/12/04 00:50:09;;;;;;;20.45;13.52;;;;;;;;;;5020975;28;20055;-70
2023/12/04 00:52:35;;;;;;;21.30;14.20;;;;;;;;;;4997571;28;20061;-70
2023/12/04 00:55:01;;;;;;;18.65;13.18;;;;;;;;;;4997405;28;20029;-71
2023/12/04 00:57:27;;;;;;;19.88;13.32;;;;;;;;;;4996419;28;20045;-70
2023/12/04 00:59:53;;;;;;;19.05;12.95;;;;;;;;;;5012857;28;20473;-70
2023/12/04 01:02:19;;;;;;;20.98;13.52;;;;;;;;;;5012765;28;20133;-70
2023/12/04 01:04:45;;;;;;;21.30;13.70;;;;;;;;;;5012825;28;20065;-70
2023/12/04 01:07:11;;;;;;;20.92;13.57;;;;;;;;;;5011263;28;20053;-70
2023/12/04 01:09:38;;;;;;;21.75;13.18;;;;;;;;;;5011291;28;20046;-70
2023/12/04 01:12:04;;;;;;;21.13;13.52;;;;;;;;;;4995292;28;20074;-70
2023/12/04 01:14:30;;;;;;;21.10;13.32;;;;;;;;;;5012295;28;20045;-70
2023/12/04 01:16:56;;;;;;;20.77;13.55;;;;;;;;;;5011579;28;20417;-70
2023/12/04 01:19:23;;;;;;;18.48;12.73;;;;;;;;;;5012285;28;20046;-70
2023/12/04 01:21:49;;;;;;;21.33;13.77;;;;;;;;;;5011497;28;20077;-70
2023/12/04 01:24:15;;;;;;;21.55;13.13;;;1.10;99.90;;;;;;5012698;28;20541;-70
2023/12/04 01:26:42;;;;;;;18.25;13.57;;;;;;;;;;5014663;28;20576;-70
2023/12/04 01:29:08;;;;;;;23.05;14.18;;;;;;;;;;5014431;28;20038;-70
2023/12/04 01:31:34;;;;;;;20.25;13.07;;;;;;;;;;5015842;28;20096;-70
2023/12/04 01:34:00;;;;;;;20.02;13.40;;;;;;;;;;5015277;28;20073;-70
2023/12/04 01:36:26;;;;;;;19.65;12.82;;;;;;;;;;5015200;28;20121;-70
2023/12/04 01:38:52;;;;;;;20.80;13.40;;;;;;;;;;5005816;28;20045;-70
2023/12/04 01:41:18;;;;;;;20.08;12.77;;;;;;;;;;5021352;28;20041;-69
2023/12/04 01:43:44;;;;;;;20.33;14.30;;;;;;;;;;5024608;28;20049;-70
2023/12/04 01:46:11;;;;;;;20.25;13.90;;;;;;;;;;4999578;28;20049;-69
2023/12/04 01:48:38;;;;;;;20.30;13.55;;;;;;;;;;5014202;28;20504;-69
2023/12/04 01:51:07;;;;;;;19.67;13.13;;;1.10;99.90;;;;;;5014687;28;20085;-69
2023/12/04 01:53:33;;;;;;;19.95;12.57;;;;;;;;;;5014394;28;20448;-69
2023/12/04 01:55:59;;;;;;;22.48;13.75;;;;;;;;;;5014022;28;20516;-69
2023/12/04 01:58:25;;;;;;;20.55;12.45;;;;;;;;;;5032315;28;20120;-69
2023/12/04 02:00:52;;;;;;;22.90;13.90;;;;;;;;;;5033886;28;20040;-69
2023/12/04 02:03:18;;;;;;;21.15;14.07;;;;;;;;;;5000980;28;20041;-69
2023/12/04 02:05:48;;;;;;;22.77;14.07;;;;;;;;;;5014323;28;20042;-69
2023/12/04 02:08:14;;;;;;;21.15;13.38;;;;;;;;;;5014016;28;20045;-69
2023/12/04 02:10:40;;;;;;;23.10;14.05;;;;;;;;;;5005082;28;20393;-69
2023/12/04 02:13:06;;;;;;;22.42;13.55;;;;;;;;;;5031974;28;20120;-69
2023/12/04 02:15:33;;;;;;;21.77;14.25;;;;;;;;;;5031527;28;20137;-69
2023/12/04 02:17:59;;;;;;;25.23;14.93;;;;;;;;;;5023933;28;20041;-69
2023/12/04 02:20:33;;;;;;;22.52;14.38;;;;;;;;;;5014884;28;20124;-69
2023/12/04 02:22:59;;;;;;;21.80;14.13;;;;;;;;;;5020310;28;20525;-69
2023/12/04 02:25:25;;;;;;;22.90;14.38;;;;;;;;;;5011487;28;20037;-69
2023/12/04 02:27:52;;;;;;;24.85;15.63;;;1.30;99.90;;;;;;5025845;28;20165;-69
2023/12/04 02:30:20;;;;;;;21.13;14.07;;;;;;;;;;5014602;28;20269;-69
2023/12/04 02:32:47;;;;;;;24.20;15.00;;;;;;;;;;5015721;28;20038;-69
2023/12/04 02:35:16;;;;;;;23.00;14.55;;;1.20;99.90;;;;;;5015343;28;20364;-69
2023/12/04 02:37:42;;;;;;;23.23;14.40;;;;;;;;;;5013245;28;20041;-70
2023/12/04 02:40:09;;;;;;;26.52;15.05;;;;;;;;;;5014329;28;20086;-70
2023/12/04 02:42:35;;;;;;;23.40;15.20;;;;;;;;;;5013204;28;20133;-70
2023/12/04 02:45:01;;;;;;;21.77;14.57;;;;;;;;;;5011495;28;20037;-70
2023/12/04 02:47:27;;;;;;;22.38;14.32;;;;;;;;;;5013299;28;20042;-70
2023/12/04 02:49:53;;;;;;;24.13;14.25;;;;;;;;;;5013453;28;20494;-70
2023/12/04 02:52:19;;;;;;;24.90;15.10;;;;;;;;;;5014383;28;20038;-70
2023/12/04 02:54:45;;;;;;;27.77;15.48;;;;;;;;;;5015189;28;20038;-70
2023/12/04 02:57:11;;;;;;;24.75;14.73;;;;;;;;;;5015566;28;20046;-70
2023/12/04 02:59:37;;;;;;;23.70;14.80;;;;;;;;;;5014961;28;20053;-70
2023/12/04 03:02:03;;;;;;;25.17;15.23;;;;;;;;;;4998646;28;20038;-70
2023/12/04 03:04:30;;;;;;;24.60;14.68;;;1.30;99.90;;;;;;5014095;28;20045;-70
2023/12/04 03:06:56;;;;;;;24.88;15.82;;;;;;;;;;5025819;28;20040;-70
2023/12/04 03:09:22;;;;;;;25.20;15.07;;;;;;;;;;5031465;28;20041;-70
2023/12/04 03:11:49;;;;;;;25.83;15.75;;;;;;;;;;4996744;28;20502;-71
2023/12/04 03:14:15;;;;;;;24.92;15.35;;;;;;;;;;4999162;28;20124;-71
2023/12/04 03:16:41;;;;;;;27.52;15.07;;;;;;;;;;5013677;28;20042;-70
2023/12/04 03:19:07;;;;;;;29.35;16.33;;;;;;;;;;5013050;28;20149;-71
2023/12/04 03:21:33;;;;;;;24.42;15.18;;;;;;;;;;5014356;28;20040;-71
2023/12/04 03:23:59;;;;;;;26.15;14.63;;;;;;;;;;4996556;28;20413;-70
2023/12/04 03:26:25;;;;;;;26.55;15.27;;;;;;;;;;5019930;28;20095;-71
2023/12/04 03:28:52;;;;;;;26.40;16.35;;;;;;;;;;5027847;28;20038;-71
2023/12/04 03:31:18;;;;;;;26.52;15.43;;;;;;;;;;5013911;28;20037;-71
2023/12/04 03:33:44;;;;;;;26.90;15.38;;;;;;;;;;5030551;28;20029;-71
2023/12/04 03:36:10;;;;;;;26.00;15.27;;;;;;;;;;4996628;28;20038;-71
2023/12/04 03:38:36;;;;;;;24.60;15.18;;;;;;;;;;5013220;28;20033;-71
2023/12/04 03:41:02;;;;;;;27.02;15.90;;;;;;;;;;5013626;28;20386;-71
2023/12/04 03:43:28;;;;;;;24.35;14.43;;;;;;;;;;5013568;28;20056;-71
2023/12/04 03:45:54;;;;;;;25.23;14.75;;;;;;;;;;5013625;28;20037;-71
2023/12/04 03:48:20;;;;;;;25.10;15.15;;;;;;;;;;4996857;28;20034;-71
2023/12/04 03:50:46;;;;;;;24.67;14.48;;;;;;;;;;5015381;28;20494;-71
2023/12/04 03:53:12;;;;;;;27.77;14.40;;;;;;;;;;5003716;28;20103;-71
2023/12/04 03:55:39;;;;;;;24.25;15.05;;;;;;;;;;5027460;28;20034;-71
2023/12/04 03:58:05;;;;;;;24.38;14.20;;;;;;;;;;5013623;28;20044;-71
2023/12/04 04:00:31;;;;;;;24.13;14.27;;;;;;;;;;5028584;28;20030;-71
2023/12/04 04:02:57;;;;;;;28.27;15.65;;;;;;;;;;5028567;28;20033;-71
2023/12/04 04:05:23;;;;;;;24.95;14.68;;;;;;;;;;5008577;28;20508;-71
2023/12/04 04:07:49;;;;;;;25.00;15.02;;;;;;;;;;5013220;28;20049;-71
2023/12/04 04:10:15;;;;;;;24.65;14.57;;;;;;;;;;5016747;28;20103;-71
2023/12/04 04:12:41;;;;;;;27.63;14.73;;;;;;;;;;5013246;28;20045;-70
2023/12/04 04:15:08;;;;;;;27.95;14.77;;;;;;;;;;5028825;28;20044;-70
2023/12/04 04:17:34;;;;;;;25.05;14.35;;;;;;;;;;5017213;28;20176;-70
2023/12/04 04:20:00;;;;;;;24.83;14.68;;;;;;;;;;4995669;28;20042;-70
2023/12/04 04:22:26;;;;;;;25.65;14.27;;;;;;;;;;5011829;28;20052;-70
2023/12/04 04:24:52;;;;;;;25.13;14.18;;;;;;;;;;5012085;28;20445;-70
2023/12/04 04:27:18;;;;;;;21.90;13.52;;;;;;;;;;5012215;28;20367;-70
2023/12/04 04:29:44;;;;;;;25.02;14.30;;;;;;;;;;5011742;28;20045;-70
2023/12/04 04:32:10;;;;;;;25.40;14.23;;;;;;;;;;5012056;28;20070;-70
2023/12/04 04:34:36;;;;;;;25.55;13.95;;;;;;;;;;5029171;28;20120;-70
2023/12/04 04:37:02;;;;;;;23.60;13.10;;;;;;;;;;5002247;28;20125;-71
2023/12/04 04:39:29;;;;;;;24.42;13.50;;;;;;;;;;4979291;28;20144;-70
2023/12/04 04:41:55;;;;;;;21.48;12.55;;;;;;;;;;5012053;28;20469;-70
2023/12/04 04:44:21;;;;;;;22.85;12.57;;;;;;;;;;4995324;28;20049;-71
2023/12/04 04:46:47;;;;;;;24.08;12.68;;;;;;;;;;5006546;28;20046;-71
2023/12/04 04:49:13;;;;;;;23.73;13.82;;;;;;;;;;5015085;28;20148;-70
2023/12/04 04:51:39;;;;;;;23.85;13.32;;;;;;;;;;5018681;28;20041;-70
2023/12/04 04:54:05;;;;;;;22.42;13.07;;;;;;;;;;5031271;28;20034;-69
2023/12/04 04:56:31;;;;;;;22.65;13.18;;;;;;;;;;5028019;28;20046;-69
2023/12/04 04:58:58;;;;;;;22.70;13.32;;;;;;;;;;5012711;28;20045;-69
2023/12/04 05:01:24;;;;;;;21.35;12.68;;;;;;;;;;5029498;28;20078;-69
2023/12/04 05:03:50;;;;;;;25.80;13.25;;;;;;;;;;5015181;28;20047;-70
2023/12/04 05:06:16;;;;;;;22.95;12.88;;;;;;;;;;5015260;28;20472;-69
2023/12/04 05:08:42;;;;;;;22.52;13.05;;;;;;;;;;5015187;28;20038;-70
2023/12/04 05:11:08;;;;;;;20.55;12.00;;;;;;;;;;5015360;28;20042;-69
2023/12/04 05:13:34;;;;;;;22.48;12.80;;;;;;;;;;5015860;28;20375;-70
2023/12/04 05:16:00;;;;;;;20.50;12.38;;;;;;;;;;5014955;28;20034;-69
2023/12/04 05:18:26;;;;;;;22.50;12.95;;;;;;;;;;5015109;28;20065;-69
2023/12/04 05:20:52;;;;;;;20.15;12.18;;;;;;;;;;5015231;28;20064;-69
2023/12/04 05:23:18;;;;;;;21.10;12.52;;;;;;;;;;4983374;28;20038;-69
2023/12/04 05:25:44;;;;;;;23.17;12.20;;;;;;;;;;5014863;28;20037;-69
2023/12/04 05:28:11;;;;;;;23.73;12.25;;;;;;;;;;5007030;28;20405;-69
2023/12/04 05:30:37;;;;;;;23.20;12.82;;;;;;;;;;5033954;28;20076;-70
2023/12/04 05:33:03;;;;;;;23.45;11.93;;;;;;;;;;5011140;28;20038;-70
2023/12/04 05:35:29;;;;;;;23.70;12.00;;;;;;;;;;4998428;28;20455;-70
2023/12/04 05:37:55;;;;;;;21.92;12.40;;;;;;;;;;5015061;28;20065;-70
2023/12/04 05:40:21;;;;;;;23.42;12.90;;;;;;;;;;4998083;28;20054;-70
2023/12/04 05:42:47;;;;;;;23.23;13.05;;;;;;;;;;4998475;28;20049;-69
2023/12/04 05:45:14;;;;;;;20.05;12.20;;;;;;;;;;5014382;28;20064;-70
2023/12/04 05:47:40;;;;;;;20.13;11.10;;;;;;;;;;5014738;28;20065;-70
2023/12/04 05:50:07;;;;;;;22.20;12.10;;;;;;;;;;5015595;28;20037;-70
2023/12/04 05:52:33;;;;;;;21.40;11.70;;;;;;;;;;5014275;28;20554;-70
2023/12/04 05:54:59;;;;;;;21.30;12.32;;;;;;;;;;4999228;28;20390;-70
2023/12/04 05:57:25;;;;;;;22.25;12.80;;;;;;;;;;5014494;28;20034;-70
2023/12/04 05:59:51;;;;;;;22.50;11.75;;;;;;;;;;5014191;28;20041;-69
2023/12/04 06:02:17;;;;;;;18.67;11.30;;;;;;;;;;5014178;28;20038;-70
2023/12/04 06:04:43;;;;;;;20.23;10.95;;;;;;;;;;5025033;28;20049;-70
2023/12/04 06:07:09;;;;;;;20.38;11.45;;;;;;;;;;5017255;28;20053;-69
2023/12/04 06:09:38;;;;;;;20.30;12.02;;;;;;;;;;5031809;28;20125;-69
2023/12/04 06:12:09;;;;;;;20.45;11.23;;;;;;;;;;5032506;28;20041;-70
2023/12/04 06:14:35;;;;;;;19.70;11.60;;;;;;;;;;5009311;28;20437;-70
2023/12/04 06:17:01;;;;;;;19.80;11.60;;;;;;;;;;5014136;28;20040;-70
2023/12/04 06:19:28;;;;;;;20.17;11.52;;;1.50;99.90;;;;;;5014009;28;20037;-70
2023/12/04 06:21:55;;;;;;;20.48;10.95;;;;;;;;;;5013857;28;20041;-70
2023/12/04 06:24:21;;;;;;;19.60;11.48;;;;;;;;;;5013826;28;20490;-69
2023/12/04 06:26:50;;;;;;;20.60;12.27;;;1.60;99.90;;;;;;5013541;28;20374;-69
2023/12/04 06:29:16;;;;;;;17.52;11.10;;;;;;;;;;5014745;28;20050;-69
2023/12/04 06:31:42;;;;;;;22.20;11.10;;;;;;;;;;5013654;28;20069;-69
2023/12/04 06:34:08;;;;;;;17.60;10.93;;;;;;;;;;5023741;28;20038;-69
2023/12/04 06:36:37;;;;;;;19.02;11.13;;;;;;;;;;5033214;28;20045;-69
2023/12/04 06:39:08;;;;;;;18.70;11.80;;;1.30;99.90;;;;;;5003982;28;20064;-69
2023/12/04 06:41:34;;;;;;;19.35;11.10;;;;;;;;;;4997282;28;20061;-69
2023/12/04 06:44:00;;;;;;;17.67;10.57;;;;;;;;;;5013383;28;20045;-69
2023/12/04 06:46:30;;;;;;;17.45;11.20;;;1.50;99.90;;;;;;5013361;28;20045;-69
2023/12/04 06:48:58;;;;;;;18.48;10.82;;;;;;;;;;5013513;28;20056;-69
2023/12/04 06:51:24;;;;;;;18.65;11.40;;;;;;;;;;4997026;28;20151;-69
2023/12/04 06:53:50;;;;;;;18.88;11.77;;;;;;;;;;5013199;28;20030;-69
2023/12/04 06:56:16;;;;;;;17.65;11.07;;;;;;;;;;5015706;28;20085;-69
2023/12/04 06:58:42;;;;;;;20.33;11.00;;;;;;;;;;5013829;28;20128;-69
2023/12/04 07:01:08;;;;;;;19.70;10.60;;;;;;;;;;5012968;28;20048;-69
2023/12/04 07:03:34;;;;;;;20.10;11.50;;;;;;;;;;5013188;28;20434;-69
2023/12/04 07:06:00;;;;;;;18.67;11.25;;;;;;;;;;5013257;28;20033;-69
2023/12/04 07:08:26;;;;;;;20.40;11.15;;;;;;;;;;5008973;28;20044;-69
2023/12/04 07:10:52;;;;;;;17.42;11.25;;;;;;;;;;5030082;28;20049;-69
2023/12/04 07:13:19;;;;;;;21.10;11.55;;;;;;;;;;5026090;28;20034;-69
2023/12/04 07:15:45;;;;;;;18.30;10.57;;;;;;;;;;5024026;28;20041;-69
2023/12/04 07:18:11;;;;;;;16.98;11.02;;;;;;;;;;5030554;28;20064;-69
2023/12/04 07:20:37;;;;;;;16.90;10.82;;;;;;;;;;5027356;28;20045;-69
2023/12/04 07:23:03;;;;;;;18.52;11.25;;;;;;;;;;5026961;28;20037;-68
2023/12/04 07:25:29;;;;;;;17.63;10.80;;;;;;;;;;5012569;28;20244;-68
2023/12/04 07:27:57;;;;;;;19.77;11.15;;;;;;;;;;5020144;28;20045;-73
2023/12/04 07:30:24;;;;;;;18.60;10.65;;;;;;;;;;5030926;28;20041;-69
2023/12/04 07:32:50;;;;;;;18.05;10.75;;;;;;;;;;5030355;28;20386;-69
2023/12/04 07:35:21;;;;;;;16.80;10.15;;;;;;;;;;5014853;28;20044;-69
2023/12/04 07:37:47;;;;;;;16.60;10.18;;;;;;;;;;5031389;28;20048;-69
2023/12/04 07:40:13;;;;;;;15.98;10.05;;;;;;;;;;5031649;28;20097;-69
2023/12/04 07:42:39;;;;;;;17.55;10.07;;;;;;;;;;5031409;28;20473;-69
2023/12/04 07:45:05;;;;;;;15.52;10.00;;;;;;;;;;5015102;28;20042;-69
2023/12/04 07:47:31;;;;;;;18.25;10.30;;;;;;;;;;5010390;28;20490;-69
2023/12/04 07:49:58;;;;;;;15.85;9.85;;;;;;;;;;5014754;28;20120;-69
2023/12/04 07:52:25;;;;;;;15.43;10.02;;;;;;;;;;5031200;28;20460;-69
2023/12/04 07:54:52;;;;;;;16.48;10.07;;;;;;;;;;5031355;28;20076;-69
2023/12/04 07:57:18;;;;;;;17.25;10.15;;;;;;;;;;4998482;28;20120;-69
2023/12/04 07:59:44;;;;;;;16.50;9.57;;;;;;;;;;5031904;28;20148;-69
2023/12/04 08:02:10;;;;;;;15.48;8.88;;;;;;;;;;5031170;28;20048;-69
2023/12/04 08:04:36;;;;;;;16.13;9.93;;;;;;;;;;5015239;28;20041;-69
2023/12/04 08:07:03;;;;;;;15.48;10.35;;;;;;;;;;5031447;28;20053;-69
2023/12/04 08:09:29;;;;;;;17.42;9.48;;;;;;;;;;5031051;28;20037;-69
2023/12/04 08:11:55;;;;;;;16.13;10.20;;;;;;;;;;5031534;28;20501;-69
2023/12/04 08:14:21;;;;;;;15.20;9.27;;;;;;;;;;5027825;28;20030;-69
2023/12/04 08:16:48;;;;;;;16.83;9.40;;;;;;;;;;5030901;28;20103;-69
2023/12/04 08:19:14;;;;;;;14.27;8.95;;;;;;;;;;5030836;28;20120;-69
2023/12/04 08:21:40;;;;;;;15.20;8.90;;;;;;;;;;5015075;28;20390;-69
2023/12/04 08:24:06;;;;;;;15.93;9.57;;;;;;;;;;5014339;28;20045;-69
2023/12/04 08:26:32;;;;;;;15.13;9.07;;;;;;;;;;5031224;28;20110;-69
2023/12/04 08:28:58;;;;;;;13.48;8.65;;;;;;;;;;5030912;28;20045;-69
2023/12/04 08:31:24;;;;;;;14.10;8.30;;;;;;;;;;5030720;28;20152;-69
2023/12/04 08:33:50;;;;;;;13.30;8.43;;;;;;;;;;5009618;28;20523;-69
2023/12/04 08:36:16;;;;;;;12.48;8.30;;;;;;;;;;5035115;28;20469;-69
2023/12/04 08:38:43;;;;;;;12.35;8.45;;;;;;;;;;5018199;28;20045;-69
2023/12/04 08:41:09;;;;;;;14.23;8.20;;;;;;;;;;5033377;28;20081;-69
2023/12/04 08:43:35;;;;;;;14.23;8.73;;;;;;;;;;5016651;28;20042;-69
2023/12/04 08:46:01;;;;;;;12.40;8.43;;;;;;;;;;5033307;28;20099;-68
2023/12/04 08:48:27;;;;;;;13.45;8.38;;;;;;;;;;5018071;28;20037;-68
2023/12/04 08:50:53;;;;;;;13.20;8.30;;;;;;;;;;5021776;28;20136;-69
2023/12/04 08:53:19;;;;;;;12.52;8.05;;;;;;;;;;5026785;28;20358;-69
2023/12/04 08:55:45;;;;;;;15.95;8.00;;;;;;;;;;5027011;28;20179;-69
2023/12/04 08:58:11;;;;;;;14.95;8.48;;;;;;;;;;4998865;28;20038;-69
2023/12/04 09:00:42;;;;;;;13.70;8.05;;;;;;;;;;4997768;28;20038;-69
2023/12/04 09:03:08;;;;;;;16.77;8.38;;;;;;;;;;5021890;28;20126;-69
2023/12/04 09:05:34;;;;;;;12.60;8.15;;;;;;;;;;5035653;28;20482;-69
2023/12/04 09:08:01;;;;;;;13.35;8.25;;;;;;;;;;5035001;28;20430;-69
2023/12/04 09:10:27;;;;;;;13.73;7.82;;;;;;;;;;5034695;28;20064;-69
2023/12/04 09:12:53;;;;;;;11.43;7.60;;;;;;;;;;5018289;28;20041;-68
2023/12/04 09:15:19;;;;;;;12.07;7.55;;;;;;;;;;5036089;28;20099;-69
2023/12/04 09:17:45;;;;;;;10.32;6.88;;;;;;;;;;5034820;28;20037;-68
2023/12/04 09:20:11;;;;;;;12.45;7.95;;;;;;;;;;5018216;28;20048;-68
2023/12/04 09:22:38;;;;;;;12.00;7.03;;;;;;;;;;5016197;28;20055;-68
2023/12/04 09:25:06;;;;;;;12.35;8.00;;;;;;;;;;5034609;28;20498;-69
2023/12/04 09:27:32;;;;;;;12.55;7.90;;;;;;;;;;5034540;28;20040;-68
2023/12/04 09:29:58;;;;;;;11.63;7.53;;;;;;;;;;5034192;28;20490;-69
2023/12/04 09:32:25;;;;;;;10.63;6.25;;;;;;;;;;5018148;28;20037;-69
2023/12/04 09:34:51;;;;;;;9.65;6.47;;;;;;;;;;5034445;28;20094;-69
2023/12/04 09:37:17;;;;;;;10.05;6.53;;;;;;;;;;5017841;28;20029;-69
2023/12/04 09:39:43;;;;;;;11.38;6.55;;;;;;;;;;5034190;28;20062;-69
2023/12/04 09:42:10;;;;;;;9.60;6.60;;;;;;;;;;5034178;28;20369;-69
2023/12/04 09:44:37;;;;;;;10.77;6.80;;;;;;;;;;5034227;28;20132;-69
2023/12/04 09:47:04;;;;;;;9.85;6.03;;;1.90;99.90;;;;;;5017627;28;20080;-69
2023/12/04 09:49:31;;;;;;;10.00;6.72;;;;;;;;;;5017548;28;20046;-69
2023/12/04 09:52:02;;;;;;;11.20;6.60;;;;;;;;;;5033959;28;20030;-69
2023/12/04 09:54:29;;;;;;;9.88;6.60;;;;;;;;;;5034249;28;20087;-69
2023/12/04 09:56:55;;;;;;;11.02;6.20;;;;;;;;;;5034078;28;20437;-69
2023/12/04 09:59:25;;;;;;;12.10;6.22;;;;;;;;;;5033819;28;20073;-68
2023/12/04 10:01:52;;;;;;;8.40;6.38;;;;;;;;;;5033594;28;20393;-68
2023/12/04 10:04:18;;;;;;;10.77;6.13;;;;;;;;;;5033868;28;20077;-68
2023/12/04 10:06:45;;;;;;;9.95;6.45;;;1.90;99.90;;;;;;5000788;28;20042;-68
2023/12/04 10:09:13;;;;;;;11.23;6.38;;;;;;;;;;5033722;28;20112;-68
2023/12/04 10:11:42;;;;;;;8.70;6.07;;;;;;;;;;5033743;28;20045;-68
2023/12/04 10:14:17;;;;;;;8.50;5.85;;;1.90;99.90;;;;;;5033492;28;20087;-68
2023/12/04 10:16:44;;;;;;;14.13;6.53;;;;;;;;;;5033814;28;20055;-68
2023/12/04 10:19:17;;;;;;;9.23;5.93;;;;;;;;;;5033362;28;20516;-68
2023/12/04 10:21:44;;;;;;;10.30;6.18;;;;;;;;;;5033420;28;20052;-68
2023/12/04 10:24:10;;;;;;;10.25;6.28;;;;;;;;;;5033017;28;20470;-68
2023/12/04 10:26:36;;;;;;;9.40;6.13;;;;;;;;;;5033558;28;20041;-68
2023/12/04 10:29:05;;;;;;;11.27;6.78;;;2.10;99.90;;;;;;5016832;28;20103;-68
2023/12/04 10:31:34;;;;;;;8.73;5.63;;;;;;;;;;5016794;28;20424;-68
2023/12/04 10:34:01;;;;;;;9.18;5.97;;;;;;;;;;5033144;28;20064;-68
2023/12/04 10:36:27;;;;;;;13.18;6.32;;;;;;;;;;5033038;28;20049;-68
2023/12/04 10:39:05;;;;;;;9.80;5.95;;;;;;;;;;5016714;28;20041;-68
2023/12/04 10:41:31;;;;;;;7.93;5.93;;;;;;;;;;5016761;28;20048;-68
2023/12/04 10:43:58;;;;;;;9.32;5.93;;;;;;;;;;5033257;28;20397;-68
2023/12/04 10:46:28;;;;;;;9.20;6.07;;;;;;;;;;5033264;28;20073;-68
2023/12/04 10:48:54;;;;;;;9.38;5.38;;;;;;;;;;5032826;28;20046;-68
2023/12/04 10:51:23;;;;;;;9.23;5.75;;;2.30;99.90;;;;;;5016272;28;20072;-68
2023/12/04 10:53:49;;;;;;;10.90;5.82;;;;;;;;;;5032678;28;20486;-69
2023/12/04 10:56:25;;;;;;;8.43;5.57;;;2.50;99.90;;;;;;5032314;28;20124;-69
2023/12/04 10:58:51;;;;;;;9.52;5.80;;;;;;;;;;5032665;28;20516;-69
2023/12/04 11:01:20;;;;;;;7.50;5.05;;;;;;;;;;5032610;28;20045;-69
2023/12/04 11:03:48;;;;;;;8.95;6.03;;;;;;;;;;5032536;28;20042;-69
2023/12/04 11:06:16;;;;;;;7.70;5.65;;;;;;;;;;5032825;28;20103;-69
2023/12/04 11:08:43;;;;;;;10.30;5.70;;;;;;;;;;5032479;28;20124;-70
2023/12/04 11:11:12;;;;;;;7.85;5.28;;;;;;;;;;5032563;28;20045;-70
2023/12/04 11:13:43;;;;;;;8.18;5.63;;;2.50;99.90;;;;;;5032368;28;20477;-70
2023/12/04 11:16:21;;;;;;;8.55;5.93;;;;;;;;;;5032508;28;20041;-70
2023/12/04 11:18:51;;;;;;;9.77;5.65;;;;;;;;;;5032322;28;20442;-70
2023/12/04 11:21:19;;;;;;;7.28;5.25;;;;;;;;;;5032281;28;20271;-71
2023/12/04 11:23:45;;;;;;;11.88;5.95;;;;;;;;;;5032097;28;20045;-70
2023/12/04 11:26:12;;;;;;;14.38;6.82;;;2.60;99.90;;;;;;5032718;28;20406;-70
2023/12/04 11:28:38;;;;;;;12.32;6.22;;;;;;;;;;5023908;28;20053;-70
2023/12/04 11:31:05;;;;;;;10.50;6.38;;;;;;;;;;4998889;28;20574;-70
2023/12/04 11:33:37;;;;;;;10.20;6.00;;;;;;;;;;5024448;28;20059;-70
2023/12/04 11:36:11;;;;;;;9.50;6.20;;;2.40;99.90;;;;;;4989955;28;21750;-70
2023/12/04 11:38:42;;;;;;;9.18;5.72;;;2.60;99.90;;;;;;5027715;28;20390;-70
2023/12/04 11:41:16;;;;;;;10.45;6.35;;;;;;;;;;5003237;28;20137;-70
2023/12/04 11:43:43;;;;;;;10.10;6.15;;;2.70;99.90;;;;;;5017273;28;20077;-70
2023/12/04 11:46:09;;;;;;;8.70;5.80;;;;;;;;;;5015150;28;20060;-70
2023/12/04 11:48:39;;;;;;;8.80;6.05;;;;;;;;;;5004030;28;20045;-70
2023/12/04 11:51:08;;;;;;;10.60;5.90;;;;;;;;;;5030486;28;20038;-70
2023/12/04 11:53:39;;;;;;;9.40;6.00;;;2.70;99.90;;;;;;5008624;28;20037;-70
2023/12/04 11:56:12;;;;;;;9.73;6.38;;;;;;;;;;5009274;28;20045;-70
2023/12/04 11:58:44;;;;;;;11.27;6.25;;;;;;;;;;5029042;28;20037;-70
2023/12/04 12:01:11;;;;;;;;;;;2.60;99.90;;;;;;5015584;28;20389;-70
2023/12/04 12:03:37;;;;;;;12.48;6.88;;;;;;;;;;5020192;28;20028;-70
2023/12/04 12:06:04;;;;;;;10.68;6.55;;;2.60;99.90;;;;;;5014562;28;20070;-70
2023/12/04 12:08:30;;;;;;;9.40;6.63;;;;;;;;;;5012379;28;20058;-69
2023/12/04 12:10:57;;;;;;;8.95;6.28;;;;;;;;;;5011789;28;20046;-69
2023/12/04 12:13:25;;;;;;;11.52;6.45;;;;;;;;;;4985051;28;20109;-69
2023/12/04 12:15:52;;;;;;;10.20;6.28;;;2.80;99.90;;;;;;5012908;28;20085;-70
2023/12/04 12:18:18;;;;;;;10.32;6.68;;;;;;;;;;5016500;28;20378;-69
2023/12/04 12:20:44;;;;;;;9.77;6.63;;;;;;;;;;5024032;28;20041;-70
2023/12/04 12:23:11;;;;;;;11.32;7.13;;;;;;;;;;5029859;28;20041;-69
2023/12/04 12:25:38;;;;;;;11.13;6.55;;;;;;;;;;5010692;28;20119;-69
2023/12/04 12:28:04;;;;;;;11.18;6.72;;;;;;;;;;5014751;28;20042;-69
2023/12/04 12:30:31;;;;;;;10.10;7.25;;;;;;;;;;5017302;28;20042;-69
2023/12/04 12:32:57;;;;;;;9.38;6.55;;;;;;;;;;5012603;28;20037;-70
2023/12/04 12:35:24;;;;;;;10.23;6.57;;;;;;;;;;5021239;28;20095;-69
2023/12/04 12:37:54;;;;;;;10.50;7.18;;;;;;;;;;5031059;28;20505;-70
2023/12/04 12:40:21;;;;;;;9.88;6.60;;;;;;;;;;5011412;28;20069;-70
2023/12/04 12:42:48;;;;;;;10.82;7.03;;;;;;;;;;5024050;28;20056;-69
2023/12/04 12:45:14;;;;;;;12.77;6.57;;;;;;;;;;5030517;28;20509;-69
2023/12/04 12:47:44;;;;;;;11.13;6.80;;;;;;;;;;5031188;28;20509;-70
2023/12/04 12:50:10;;;;;;;9.52;6.43;;;;;;;;;;5016112;28;20038;-70
2023/12/04 12:52:38;;;;;;;9.80;6.25;;;;;;;;;;5018534;28;20477;-70
2023/12/04 12:55:04;;;;;;;10.07;6.47;;;;;;;;;;5029808;28;20485;-70
2023/12/04 12:57:30;;;;;;;10.63;6.47;;;;;;;;;;5030510;28;20481;-71
2023/12/04 12:59:57;;;;;;;10.07;6.05;;;;;;;;;;5014202;28;20104;-71
2023/12/04 13:02:23;;;;;;;11.85;6.55;;;;;;;;;;5014823;28;20056;-70
2023/12/04 13:04:49;;;;;;;9.90;6.30;;;;;;;;;;5014220;28;20037;-71
2023/12/04 13:07:15;;;;;;;11.30;7.20;;;;;;;;;;5012138;28;20465;-70
2023/12/04 13:09:43;;;;;;;10.30;6.47;;;;;;;;;;5024487;28;20041;-71
2023/12/04 13:12:09;;;;;;;10.23;6.53;;;;;;;;;;5013962;28;20042;-71
2023/12/04 13:14:36;;;;;;;10.50;7.00;;;2.70;99.90;;;;;;5005915;28;20038;-70
2023/12/04 13:17:02;;;;;;;10.27;6.07;;;;;;;;;;5002923;28;20034;-70
2023/12/04 13:19:31;;;;;;;9.15;6.20;;;;;;;;;;5021243;28;20118;-70
2023/12/04 13:21:57;;;;;;;8.93;6.43;;;;;;;;;;5025592;28;20128;-70
2023/12/04 13:24:23;;;;;;;9.20;6.40;;;;;;;;;;5013060;28;20041;-69
2023/12/04 13:26:49;;;;;;;8.07;5.80;;;;;;;;;;5010300;28;20048;-69
2023/12/04 13:29:17;;;;;;;9.05;5.80;;;;;;;;;;5022371;28;20052;-69
2023/12/04 13:31:43;;;;;;;14.40;6.63;;;;;;;;;;5000356;28;20121;-69
2023/12/04 13:34:11;;;;;;;10.45;6.78;;;;;;;;;;5018036;28;20060;-70
2023/12/04 13:36:37;;;;;;;9.10;6.35;;;;;;;;;;5034229;28;20175;-70
2023/12/04 13:39:16;;;;;;;9.32;6.50;;;;;;;;;;5032714;28;20473;-70
2023/12/04 13:44:28;;;;;;;9.40;5.75;;;;;;;;;;5043393;28;20042;-70
2023/12/04 13:46:54;;;;;;;8.85;6.13;;;;;;;;;;5019285;28;20538;-71
2023/12/04 13:49:20;;;;;;;9.73;6.47;;;;;;;;;;5004429;28;20132;-70
2023/12/04 13:51:49;;;;;;;10.35;5.93;;;;;;;;;;5019260;28;20502;-70
2023/12/04 13:54:20;;;;;;;9.60;6.50;;;;;;;;;;5032037;28;20080;-70
2023/12/04 13:56:53;;;;;;;10.70;6.87;;;;;;;;;;5025683;28;20042;-70
2023/12/04 13:59:21;;;;;;;9.85;6.63;;;2.70;99.90;;;;;;5021372;28;20041;-70
2023/12/04 14:01:49;;;;;;;8.77;6.05;;;;;;;;;;5025884;28;20049;-70
2023/12/04 14:04:16;;;;;;;8.05;5.55;;;;;;;;;;5020537;28;20068;-70
2023/12/04 14:06:42;;;;;;;8.35;6.00;;;;;;;;;;4984844;28;20139;-70
2023/12/04 14:09:10;;;;;;;9.43;5.88;;;;;;;;;;5023996;28;20048;-73
2023/12/04 14:11:39;;;;;;;9.52;6.38;;;;;;;;;;5005967;28;20088;-74
2023/12/04 14:14:05;;;;;;;9.02;5.95;;;;;;;;;;5025354;28;20082;-73
2023/12/04 14:16:31;;;;;;;8.55;6.00;;;;;;;;;;5008497;28;20043;-69